TimeMST,TemperatureF,Dew PointF,Humidity,Sea Level PressureIn,VisibilityMPH,Wind Direction,Wind SpeedMPH,Gust SpeedMPH,PrecipitationIn,Events,Conditions,WindDirDegrees,DateUTC
12:15 AM,33.8,14.0,44,30.28,10.0,West,10.4,-,N/A,,Clear,280,2013-01-20 07:15:00
12:35 AM,33.8,12.2,41,30.28,10.0,West,10.4,-,N/A,,Clear,280,2013-01-20 07:35:00
12:55 AM,32.0,10.4,41,30.28,10.0,West,10.4,-,N/A,,Clear,280,2013-01-20 07:55:00
1:15 AM,32.0,10.4,41,30.27,10.0,West,12.7,-,N/A,,Clear,280,2013-01-20 08:15:00
1:35 AM,32.0,10.4,41,30.27,10.0,West,10.4,-,N/A,,Clear,270,2013-01-20 08:35:00
1:55 AM,32.0,10.4,41,30.27,10.0,West,12.7,-,N/A,,Clear,260,2013-01-20 08:55:00
2:15 AM,32.0,10.4,41,30.27,10.0,West,8.1,-,N/A,,Clear,260,2013-01-20 09:15:00
2:35 AM,32.0,10.4,41,30.27,10.0,Calm,Calm,-,N/A,,Clear,0,2013-01-20 09:35:00
2:55 AM,32.0,12.2,44,30.27,10.0,ENE,4.6,-,N/A,,Clear,70,2013-01-20 09:55:00
3:15 AM,32.0,14.0,48,30.27,10.0,Calm,Calm,-,N/A,,Clear,0,2013-01-20 10:15:00
3:35 AM,30.2,14.0,51,30.26,10.0,Calm,Calm,-,N/A,,Clear,0,2013-01-20 10:35:00
3:55 AM,30.2,14.0,51,30.26,10.0,Calm,Calm,-,N/A,,Clear,0,2013-01-20 10:55:00
4:15 AM,28.4,14.0,55,30.26,10.0,NNE,3.5,-,N/A,,Clear,20,2013-01-20 11:15:00
4:35 AM,26.6,14.0,59,30.26,10.0,North,6.9,-,N/A,,Clear,10,2013-01-20 11:35:00
5:15 AM,24.8,14.0,64,30.26,10.0,NNW,5.8,-,N/A,,Clear,330,2013-01-20 12:15:00
5:35 AM,24.8,14.0,64,30.26,10.0,NNW,8.1,-,N/A,,Clear,330,2013-01-20 12:35:00
5:55 AM,24.8,14.0,64,30.26,10.0,NW,8.1,-,N/A,,Clear,310,2013-01-20 12:55:00
6:15 AM,26.6,14.0,59,30.26,10.0,WNW,9.2,-,N/A,,Clear,300,2013-01-20 13:15:00
6:35 AM,26.6,14.0,59,30.26,10.0,WNW,8.1,-,N/A,,Clear,300,2013-01-20 13:35:00
6:55 AM,26.6,12.2,55,30.25,10.0,WNW,9.2,-,N/A,,Clear,300,2013-01-20 13:55:00
7:15 AM,26.6,12.2,55,30.25,10.0,WNW,8.1,-,N/A,,Clear,300,2013-01-20 14:15:00
7:35 AM,28.4,12.2,51,30.25,10.0,NW,9.2,-,N/A,,Clear,310,2013-01-20 14:35:00
7:55 AM,32.0,14.0,48,30.26,10.0,NW,6.9,-,N/A,,Clear,320,2013-01-20 14:55:00
8:15 AM,33.8,12.2,41,30.25,10.0,NW,4.6,-,N/A,,Clear,310,2013-01-20 15:15:00
8:35 AM,37.4,12.2,36,30.26,10.0,North,6.9,-,N/A,,Clear,360,2013-01-20 15:35:00
8:55 AM,37.4,10.4,33,30.26,10.0,North,5.8,-,N/A,,Clear,360,2013-01-20 15:55:00
9:15 AM,37.4,14.0,38,30.26,10.0,North,5.8,-,N/A,,Clear,10,2013-01-20 16:15:00
9:35 AM,37.4,14.0,38,30.26,10.0,North,5.8,-,N/A,,Clear,350,2013-01-20 16:35:00
9:55 AM,41.0,14.0,33,30.26,10.0,North,4.6,-,N/A,,Clear,350,2013-01-20 16:55:00
10:15 AM,41.0,14.0,33,30.26,10.0,North,3.5,-,N/A,,Clear,360,2013-01-20 17:15:00
10:35 AM,44.6,14.0,29,30.25,10.0,NNE,3.5,-,N/A,,Clear,20,2013-01-20 17:35:00
10:55 AM,44.6,14.0,29,30.24,10.0,Calm,Calm,-,N/A,,Clear,0,2013-01-20 17:55:00
11:15 AM,46.4,14.0,27,30.22,10.0,Calm,Calm,-,N/A,,Clear,0,2013-01-20 18:15:00
11:35 AM,48.2,14.0,25,30.20,10.0,Calm,Calm,-,N/A,,Clear,0,2013-01-20 18:35:00
11:55 AM,50.0,14.0,24,30.18,10.0,East,3.5,-,N/A,,Clear,100,2013-01-20 18:55:00
12:15 PM,51.8,14.0,22,30.16,10.0,Calm,Calm,-,N/A,,Clear,0,2013-01-20 19:15:00
12:35 PM,53.6,15.8,22,30.15,10.0,South,8.1,-,N/A,,Clear,170,2013-01-20 19:35:00
12:55 PM,55.4,15.8,21,30.13,10.0,SSE,8.1,-,N/A,,Clear,150,2013-01-20 19:55:00
1:15 PM,57.2,15.8,20,30.12,10.0,South,9.2,-,N/A,,Clear,170,2013-01-20 20:15:00
1:35 PM,59.0,15.8,19,30.10,10.0,SSE,9.2,-,N/A,,Clear,160,2013-01-20 20:35:00
1:55 PM,59.0,15.8,19,30.10,10.0,South,11.5,-,N/A,,Clear,170,2013-01-20 20:55:00
2:15 PM,62.6,15.8,16,30.09,10.0,SSE,11.5,-,N/A,,Clear,160,2013-01-20 21:15:00
2:35 PM,62.6,15.8,16,30.09,10.0,SSE,10.4,16.1,N/A,,Clear,160,2013-01-20 21:35:00
2:55 PM,62.6,15.8,16,30.09,10.0,SSE,11.5,-,N/A,,Clear,150,2013-01-20 21:55:00
3:15 PM,62.6,15.8,16,30.08,10.0,SSE,12.7,-,N/A,,Clear,160,2013-01-20 22:15:00
3:35 PM,62.6,15.8,16,30.08,10.0,SE,12.7,-,N/A,,Clear,140,2013-01-20 22:35:00
3:55 PM,62.6,15.8,16,30.07,10.0,SE,13.8,-,N/A,,Clear,140,2013-01-20 22:55:00
4:15 PM,64.4,15.8,15,30.06,10.0,SE,13.8,-,N/A,,Clear,140,2013-01-20 23:15:00
4:35 PM,62.6,17.6,18,30.06,10.0,SE,10.4,-,N/A,,Clear,140,2013-01-20 23:35:00
4:55 PM,59.0,17.6,20,30.06,10.0,SE,10.4,-,N/A,,Clear,140,2013-01-20 23:55:00
5:15 PM,57.2,15.8,20,30.06,10.0,South,9.2,-,N/A,,Clear,170,2013-01-21 00:15:00
5:55 PM,48.2,14.0,25,30.07,10.0,SE,5.8,-,N/A,,Clear,140,2013-01-21 00:55:00
6:15 PM,48.2,15.8,27,30.08,10.0,SSE,6.9,-,N/A,,Clear,160,2013-01-21 01:15:00
6:35 PM,46.4,15.8,29,30.08,10.0,SSE,5.8,-,N/A,,Clear,160,2013-01-21 01:35:00
6:55 PM,44.6,14.0,29,30.09,10.0,South,4.6,-,N/A,,Clear,170,2013-01-21 01:55:00
7:15 PM,46.4,14.0,27,30.10,10.0,SSE,5.8,-,N/A,,Clear,160,2013-01-21 02:15:00
7:35 PM,42.8,15.8,34,30.11,10.0,SSW,3.5,-,N/A,,Clear,200,2013-01-21 02:35:00
7:55 PM,42.8,14.0,31,30.11,10.0,SSW,3.5,-,N/A,,Clear,200,2013-01-21 02:55:00
8:15 PM,39.2,14.0,36,30.12,10.0,SW,5.8,-,N/A,,Clear,230,2013-01-21 03:15:00
8:35 PM,41.0,14.0,33,30.13,10.0,WNW,6.9,-,N/A,,Clear,290,2013-01-21 03:35:00
8:55 PM,39.2,15.8,39,30.14,10.0,NW,8.1,-,N/A,,Clear,310,2013-01-21 03:55:00
9:15 PM,39.2,15.8,39,30.15,10.0,NNW,11.5,-,N/A,,Clear,330,2013-01-21 04:15:00
9:35 PM,41.0,15.8,36,30.16,10.0,NNW,12.7,-,N/A,,Clear,340,2013-01-21 04:35:00
9:55 PM,42.8,14.0,31,30.16,10.0,North,10.4,-,N/A,,Clear,350,2013-01-21 04:55:00
10:15 PM,41.0,14.0,33,30.17,10.0,NNW,10.4,-,N/A,,Clear,340,2013-01-21 05:15:00
10:35 PM,39.2,14.0,36,30.17,10.0,NNW,13.8,-,N/A,,Clear,340,2013-01-21 05:35:00
10:55 PM,39.2,14.0,36,30.19,10.0,North,17.3,-,N/A,,Clear,360,2013-01-21 05:55:00
11:15 PM,39.2,14.0,36,30.20,10.0,North,13.8,-,N/A,,Clear,350,2013-01-21 06:15:00
11:35 PM,39.2,12.2,33,30.21,10.0,NNW,13.8,-,N/A,,Clear,330,2013-01-21 06:35:00
11:55 PM,37.4,12.2,36,30.21,10.0,NNW,13.8,-,N/A,,Clear,330,2013-01-21 06:55:00